sensor_id;sensor_type;location;lat;lon;timestamp;P1;durP1;ratioP1;P2;durP2;ratioP2
37431;SDS011;23292;51.300;6.252;2022-10-26T00:01:13;10.23;;;4.63;;
37431;SDS011;23292;51.300;6.252;2022-10-26T00:03:41;12.55;;;5.43;;
37431;SDS011;23292;51.300;6.252;2022-10-26T00:06:10;24.08;;;7.22;;
37431;SDS011;23292;51.300;6.252;2022-10-26T00:08:36;11.50;;;5.63;;
37431;SDS011;23292;51.300;6.252;2022-10-26T00:11:04;11.35;;;5.07;;
37431;SDS011;23292;51.300;6.252;2022-10-26T00:13:31;10.70;;;5.13;;
37431;SDS011;23292;51.300;6.252;2022-10-26T00:15:58;13.23;;;6.18;;
37431;SDS011;23292;51.300;6.252;2022-10-26T00:18:30;13.40;;;5.55;;
37431;SDS011;23292;51.300;6.252;2022-10-26T00:21:01;14.80;;;5.90;;
37431;SDS011;23292;51.300;6.252;2022-10-26T00:23:29;13.48;;;5.53;;
37431;SDS011;23292;51.300;6.252;2022-10-26T00:25:57;13.52;;;4.78;;
37431;SDS011;23292;51.300;6.252;2022-10-26T00:28:24;14.23;;;5.40;;
37431;SDS011;23292;51.300;6.252;2022-10-26T00:30:50;11.60;;;5.43;;
37431;SDS011;23292;51.300;6.252;2022-10-26T00:33:17;11.50;;;5.13;;
37431;SDS011;23292;51.300;6.252;2022-10-26T00:35:47;9.68;;;4.72;;
37431;SDS011;23292;51.300;6.252;2022-10-26T00:38:18;13.20;;;5.18;;
37431;SDS011;23292;51.300;6.252;2022-10-26T00:40:44;12.43;;;6.30;;
37431;SDS011;23292;51.300;6.252;2022-10-26T00:43:14;13.27;;;5.63;;
37431;SDS011;23292;51.300;6.252;2022-10-26T00:45:46;13.75;;;5.57;;
37431;SDS011;23292;51.300;6.252;2022-10-26T00:48:20;14.73;;;6.00;;
37431;SDS011;23292;51.300;6.252;2022-10-26T00:50:59;13.20;;;6.00;;
37431;SDS011;23292;51.300;6.252;2022-10-26T00:53:29;12.05;;;6.28;;
37431;SDS011;23292;51.300;6.252;2022-10-26T00:55:57;17.90;;;6.93;;
37431;SDS011;23292;51.300;6.252;2022-10-26T00:58:24;12.35;;;7.00;;
37431;SDS011;23292;51.300;6.252;2022-10-26T01:00:52;19.50;;;7.75;;
37431;SDS011;23292;51.300;6.252;2022-10-26T01:03:19;17.92;;;7.88;;
37431;SDS011;23292;51.300;6.252;2022-10-26T01:05:50;20.50;;;8.83;;
37431;SDS011;23292;51.300;6.252;2022-10-26T01:08:21;18.08;;;8.30;;
37431;SDS011;23292;51.300;6.252;2022-10-26T01:10:49;19.73;;;8.75;;
37431;SDS011;23292;51.300;6.252;2022-10-26T01:13:16;15.77;;;8.27;;
37431;SDS011;23292;51.300;6.252;2022-10-26T01:21:40;19.30;;;8.25;;
37431;SDS011;23292;51.300;6.252;2022-10-26T01:32:42;17.52;;;9.10;;
37431;SDS011;23292;51.300;6.252;2022-10-26T01:35:27;17.63;;;9.20;;
37431;SDS011;23292;51.300;6.252;2022-10-26T01:38:05;19.50;;;8.43;;
37431;SDS011;23292;51.300;6.252;2022-10-26T01:41:24;19.55;;;9.27;;
37431;SDS011;23292;51.300;6.252;2022-10-26T01:43:50;21.35;;;9.02;;
37431;SDS011;23292;51.300;6.252;2022-10-26T01:46:22;20.20;;;8.93;;
37431;SDS011;23292;51.300;6.252;2022-10-26T01:48:52;16.65;;;7.85;;
37431;SDS011;23292;51.300;6.252;2022-10-26T01:51:23;21.05;;;8.55;;
37431;SDS011;23292;51.300;6.252;2022-10-26T01:53:51;15.60;;;7.75;;
37431;SDS011;23292;51.300;6.252;2022-10-26T01:56:20;17.98;;;7.88;;
37431;SDS011;23292;51.300;6.252;2022-10-26T02:01:32;17.52;;;7.78;;
37431;SDS011;23292;51.300;6.252;2022-10-26T02:18:24;14.10;;;5.72;;
37431;SDS011;23292;51.300;6.252;2022-10-26T02:20:54;17.50;;;6.30;;
37431;SDS011;23292;51.300;6.252;2022-10-26T02:23:25;14.85;;;5.20;;
37431;SDS011;23292;51.300;6.252;2022-10-26T02:25:55;9.45;;;4.95;;
37431;SDS011;23292;51.300;6.252;2022-10-26T02:28:26;12.02;;;5.57;;
37431;SDS011;23292;51.300;6.252;2022-10-26T02:30:57;11.90;;;5.00;;
37431;SDS011;23292;51.300;6.252;2022-10-26T02:33:26;11.90;;;4.18;;
37431;SDS011;23292;51.300;6.252;2022-10-26T02:35:57;12.23;;;5.07;;
37431;SDS011;23292;51.300;6.252;2022-10-26T02:38:27;12.35;;;5.22;;
37431;SDS011;23292;51.300;6.252;2022-10-26T02:40:55;9.93;;;4.10;;
37431;SDS011;23292;51.300;6.252;2022-10-26T02:43:23;8.65;;;4.70;;
37431;SDS011;23292;51.300;6.252;2022-10-26T02:45:52;8.90;;;4.40;;
37431;SDS011;23292;51.300;6.252;2022-10-26T02:48:24;13.35;;;4.60;;
37431;SDS011;23292;51.300;6.252;2022-10-26T02:50:59;10.48;;;4.30;;
37431;SDS011;23292;51.300;6.252;2022-10-26T02:53:48;9.10;;;3.72;;
37431;SDS011;23292;51.300;6.252;2022-10-26T02:56:36;9.40;;;4.15;;
37431;SDS011;23292;51.300;6.252;2022-10-26T02:59:27;11.55;;;5.30;;
37431;SDS011;23292;51.300;6.252;2022-10-26T03:01:56;9.13;;;3.58;;
37431;SDS011;23292;51.300;6.252;2022-10-26T03:04:27;9.10;;;4.10;;
37431;SDS011;23292;51.300;6.252;2022-10-26T03:06:58;11.68;;;4.05;;
37431;SDS011;23292;51.300;6.252;2022-10-26T03:09:25;12.23;;;3.55;;
37431;SDS011;23292;51.300;6.252;2022-10-26T03:11:52;10.77;;;3.55;;
37431;SDS011;23292;51.300;6.252;2022-10-26T03:14:19;8.10;;;3.38;;
37431;SDS011;23292;51.300;6.252;2022-10-26T03:16:46;10.60;;;3.35;;
37431;SDS011;23292;51.300;6.252;2022-10-26T03:19:13;8.75;;;3.60;;
37431;SDS011;23292;51.300;6.252;2022-10-26T03:21:40;12.65;;;3.97;;
37431;SDS011;23292;51.300;6.252;2022-10-26T03:24:07;8.88;;;3.75;;
37431;SDS011;23292;51.300;6.252;2022-10-26T03:26:35;8.88;;;3.10;;
37431;SDS011;23292;51.300;6.252;2022-10-26T03:29:01;7.57;;;3.30;;
37431;SDS011;23292;51.300;6.252;2022-10-26T03:31:28;13.02;;;3.45;;
37431;SDS011;23292;51.300;6.252;2022-10-26T03:33:55;10.63;;;3.88;;
37431;SDS011;23292;51.300;6.252;2022-10-26T03:36:22;6.97;;;3.20;;
37431;SDS011;23292;51.300;6.252;2022-10-26T03:38:48;9.88;;;3.60;;
37431;SDS011;23292;51.300;6.252;2022-10-26T03:41:15;16.85;;;3.80;;
37431;SDS011;23292;51.300;6.252;2022-10-26T03:43:42;8.57;;;3.00;;
37431;SDS011;23292;51.300;6.252;2022-10-26T03:46:08;10.65;;;3.08;;
37431;SDS011;23292;51.300;6.252;2022-10-26T03:48:35;12.05;;;5.18;;
37431;SDS011;23292;51.300;6.252;2022-10-26T03:51:02;12.30;;;3.65;;
37431;SDS011;23292;51.300;6.252;2022-10-26T03:53:29;7.85;;;2.83;;
37431;SDS011;23292;51.300;6.252;2022-10-26T03:55:55;8.68;;;2.80;;
37431;SDS011;23292;51.300;6.252;2022-10-26T03:58:38;10.05;;;3.13;;
37431;SDS011;23292;51.300;6.252;2022-10-26T04:01:05;12.10;;;3.10;;
37431;SDS011;23292;51.300;6.252;2022-10-26T04:03:32;11.70;;;3.30;;
37431;SDS011;23292;51.300;6.252;2022-10-26T04:05:59;8.70;;;3.25;;
37431;SDS011;23292;51.300;6.252;2022-10-26T04:08:27;8.70;;;3.00;;
37431;SDS011;23292;51.300;6.252;2022-10-26T04:10:53;8.57;;;3.10;;
37431;SDS011;23292;51.300;6.252;2022-10-26T04:13:20;9.90;;;3.33;;
37431;SDS011;23292;51.300;6.252;2022-10-26T04:15:47;15.23;;;3.22;;
37431;SDS011;23292;51.300;6.252;2022-10-26T04:18:13;10.07;;;3.33;;
37431;SDS011;23292;51.300;6.252;2022-10-26T04:20:40;10.13;;;3.20;;
37431;SDS011;23292;51.300;6.252;2022-10-26T04:23:11;12.38;;;3.30;;
37431;SDS011;23292;51.300;6.252;2022-10-26T04:25:39;10.25;;;3.42;;
37431;SDS011;23292;51.300;6.252;2022-10-26T04:28:08;9.23;;;3.35;;
37431;SDS011;23292;51.300;6.252;2022-10-26T04:30:36;12.35;;;3.22;;
37431;SDS011;23292;51.300;6.252;2022-10-26T04:33:04;11.18;;;3.60;;
37431;SDS011;23292;51.300;6.252;2022-10-26T04:35:31;12.32;;;3.17;;
37431;SDS011;23292;51.300;6.252;2022-10-26T04:37:58;9.82;;;3.40;;
37431;SDS011;23292;51.300;6.252;2022-10-26T04:40:26;7.45;;;3.10;;
37431;SDS011;23292;51.300;6.252;2022-10-26T04:42:54;8.45;;;3.03;;
37431;SDS011;23292;51.300;6.252;2022-10-26T04:45:20;8.00;;;3.45;;
37431;SDS011;23292;51.300;6.252;2022-10-26T04:47:57;10.40;;;3.45;;
37431;SDS011;23292;51.300;6.252;2022-10-26T04:50:38;9.35;;;3.05;;
37431;SDS011;23292;51.300;6.252;2022-10-26T04:53:06;13.38;;;3.70;;
37431;SDS011;23292;51.300;6.252;2022-10-26T04:55:33;10.35;;;3.47;;
37431;SDS011;23292;51.300;6.252;2022-10-26T04:58:00;8.52;;;3.45;;
37431;SDS011;23292;51.300;6.252;2022-10-26T05:00:28;8.77;;;3.10;;
37431;SDS011;23292;51.300;6.252;2022-10-26T05:02:59;8.40;;;3.05;;
37431;SDS011;23292;51.300;6.252;2022-10-26T05:05:26;13.07;;;3.50;;
37431;SDS011;23292;51.300;6.252;2022-10-26T05:07:54;9.13;;;2.90;;
37431;SDS011;23292;51.300;6.252;2022-10-26T05:10:22;9.70;;;3.65;;
37431;SDS011;23292;51.300;6.252;2022-10-26T05:12:50;10.25;;;4.20;;
37431;SDS011;23292;51.300;6.252;2022-10-26T05:15:17;7.60;;;3.20;;
37431;SDS011;23292;51.300;6.252;2022-10-26T05:17:45;10.70;;;3.55;;
37431;SDS011;23292;51.300;6.252;2022-10-26T05:20:12;12.85;;;3.95;;
37431;SDS011;23292;51.300;6.252;2022-10-26T05:22:40;9.88;;;3.55;;
37431;SDS011;23292;51.300;6.252;2022-10-26T05:25:07;9.27;;;3.72;;
37431;SDS011;23292;51.300;6.252;2022-10-26T05:27:34;8.13;;;3.53;;
37431;SDS011;23292;51.300;6.252;2022-10-26T05:30:00;14.65;;;3.78;;
37431;SDS011;23292;51.300;6.252;2022-10-26T05:32:27;9.98;;;3.67;;
37431;SDS011;23292;51.300;6.252;2022-10-26T05:34:54;10.77;;;2.83;;
37431;SDS011;23292;51.300;6.252;2022-10-26T05:37:21;7.65;;;3.30;;
37431;SDS011;23292;51.300;6.252;2022-10-26T05:39:47;7.95;;;3.25;;
37431;SDS011;23292;51.300;6.252;2022-10-26T05:42:14;9.07;;;3.00;;
37431;SDS011;23292;51.300;6.252;2022-10-26T05:44:41;7.93;;;2.58;;
37431;SDS011;23292;51.300;6.252;2022-10-26T05:47:07;8.85;;;2.90;;
37431;SDS011;23292;51.300;6.252;2022-10-26T05:49:34;10.07;;;2.92;;
37431;SDS011;23292;51.300;6.252;2022-10-26T05:52:01;8.13;;;3.00;;
37431;SDS011;23292;51.300;6.252;2022-10-26T05:54:27;6.22;;;2.85;;
37431;SDS011;23292;51.300;6.252;2022-10-26T05:56:54;7.60;;;2.83;;
37431;SDS011;23292;51.300;6.252;2022-10-26T05:59:21;6.32;;;2.28;;
37431;SDS011;23292;51.300;6.252;2022-10-26T06:04:43;7.60;;;2.70;;
37431;SDS011;23292;51.300;6.252;2022-10-26T06:07:15;9.45;;;2.67;;
37431;SDS011;23292;51.300;6.252;2022-10-26T06:09:43;10.52;;;2.22;;
37431;SDS011;23292;51.300;6.252;2022-10-26T06:12:10;10.30;;;2.55;;
37431;SDS011;23292;51.300;6.252;2022-10-26T06:14:42;7.05;;;2.47;;
37431;SDS011;23292;51.300;6.252;2022-10-26T06:29:18;6.30;;;2.00;;
37431;SDS011;23292;51.300;6.252;2022-10-26T06:32:08;7.30;;;2.33;;
37431;SDS011;23292;51.300;6.252;2022-10-26T06:34:36;5.68;;;2.10;;
37431;SDS011;23292;51.300;6.252;2022-10-26T06:37:08;8.30;;;2.00;;
37431;SDS011;23292;51.300;6.252;2022-10-26T06:39:37;8.70;;;2.17;;
37431;SDS011;23292;51.300;6.252;2022-10-26T06:42:08;7.47;;;1.92;;
37431;SDS011;23292;51.300;6.252;2022-10-26T06:44:36;7.20;;;2.20;;
37431;SDS011;23292;51.300;6.252;2022-10-26T06:47:04;6.53;;;1.70;;
37431;SDS011;23292;51.300;6.252;2022-10-26T06:49:39;7.90;;;2.35;;
37431;SDS011;23292;51.300;6.252;2022-10-26T06:55:00;5.60;;;2.00;;
37431;SDS011;23292;51.300;6.252;2022-10-26T06:57:28;3.72;;;1.40;;
37431;SDS011;23292;51.300;6.252;2022-10-26T07:00:01;5.25;;;1.73;;
37431;SDS011;23292;51.300;6.252;2022-10-26T07:02:30;4.90;;;1.25;;
37431;SDS011;23292;51.300;6.252;2022-10-26T07:04:57;7.88;;;1.60;;
37431;SDS011;23292;51.300;6.252;2022-10-26T07:07:25;6.57;;;1.70;;
37431;SDS011;23292;51.300;6.252;2022-10-26T07:09:54;6.22;;;1.50;;
37431;SDS011;23292;51.300;6.252;2022-10-26T07:12:20;8.45;;;2.08;;
37431;SDS011;23292;51.300;6.252;2022-10-26T07:14:47;8.45;;;2.17;;
37431;SDS011;23292;51.300;6.252;2022-10-26T07:17:14;7.05;;;1.83;;
37431;SDS011;23292;51.300;6.252;2022-10-26T07:19:42;6.22;;;2.17;;
37431;SDS011;23292;51.300;6.252;2022-10-26T07:22:10;8.23;;;2.17;;
37431;SDS011;23292;51.300;6.252;2022-10-26T07:24:37;7.65;;;2.88;;
37431;SDS011;23292;51.300;6.252;2022-10-26T07:27:03;9.35;;;1.70;;
37431;SDS011;23292;51.300;6.252;2022-10-26T07:29:30;7.68;;;1.88;;
37431;SDS011;23292;51.300;6.252;2022-10-26T07:31:57;8.90;;;2.63;;
37431;SDS011;23292;51.300;6.252;2022-10-26T07:34:23;15.55;;;5.47;;
37431;SDS011;23292;51.300;6.252;2022-10-26T07:36:50;7.47;;;2.70;;
37431;SDS011;23292;51.300;6.252;2022-10-26T07:39:17;9.38;;;1.75;;
37431;SDS011;23292;51.300;6.252;2022-10-26T07:41:44;5.65;;;1.77;;
37431;SDS011;23292;51.300;6.252;2022-10-26T07:44:11;7.53;;;1.35;;
37431;SDS011;23292;51.300;6.252;2022-10-26T07:46:38;7.60;;;1.40;;
37431;SDS011;23292;51.300;6.252;2022-10-26T07:49:04;9.77;;;1.65;;
37431;SDS011;23292;51.300;6.252;2022-10-26T07:51:31;6.60;;;1.48;;
37431;SDS011;23292;51.300;6.252;2022-10-26T07:53:58;6.75;;;1.50;;
37431;SDS011;23292;51.300;6.252;2022-10-26T07:56:24;4.78;;;1.80;;
37431;SDS011;23292;51.300;6.252;2022-10-26T07:58:52;7.45;;;1.52;;
37431;SDS011;23292;51.300;6.252;2022-10-26T08:01:19;6.03;;;1.55;;
37431;SDS011;23292;51.300;6.252;2022-10-26T08:03:46;4.97;;;1.73;;
37431;SDS011;23292;51.300;6.252;2022-10-26T08:06:13;5.20;;;1.52;;
37431;SDS011;23292;51.300;6.252;2022-10-26T08:08:40;6.38;;;1.75;;
37431;SDS011;23292;51.300;6.252;2022-10-26T08:11:12;12.50;;;1.90;;
37431;SDS011;23292;51.300;6.252;2022-10-26T08:13:39;6.25;;;1.75;;
37431;SDS011;23292;51.300;6.252;2022-10-26T08:16:06;10.02;;;2.08;;
37431;SDS011;23292;51.300;6.252;2022-10-26T08:18:34;12.23;;;3.35;;
37431;SDS011;23292;51.300;6.252;2022-10-26T08:21:02;6.65;;;1.83;;
37431;SDS011;23292;51.300;6.252;2022-10-26T08:23:37;9.15;;;2.30;;
37431;SDS011;23292;51.300;6.252;2022-10-26T08:26:04;4.35;;;1.40;;
37431;SDS011;23292;51.300;6.252;2022-10-26T08:28:31;9.45;;;2.28;;
37431;SDS011;23292;51.300;6.252;2022-10-26T08:30:58;9.00;;;1.90;;
37431;SDS011;23292;51.300;6.252;2022-10-26T08:33:24;4.80;;;1.80;;
37431;SDS011;23292;51.300;6.252;2022-10-26T08:35:58;7.38;;;2.10;;
37431;SDS011;23292;51.300;6.252;2022-10-26T08:38:27;7.20;;;1.90;;
37431;SDS011;23292;51.300;6.252;2022-10-26T08:40:55;7.10;;;1.70;;
37431;SDS011;23292;51.300;6.252;2022-10-26T08:43:24;9.38;;;2.30;;
37431;SDS011;23292;51.300;6.252;2022-10-26T08:48:22;5.30;;;1.85;;
37431;SDS011;23292;51.300;6.252;2022-10-26T08:50:53;9.32;;;2.42;;
37431;SDS011;23292;51.300;6.252;2022-10-26T08:53:28;7.45;;;2.17;;
37431;SDS011;23292;51.300;6.252;2022-10-26T08:56:08;11.17;;;2.03;;
37431;SDS011;23292;51.300;6.252;2022-10-26T08:58:45;4.32;;;1.95;;
37431;SDS011;23292;51.300;6.252;2022-10-26T09:01:16;4.15;;;1.73;;
37431;SDS011;23292;51.300;6.252;2022-10-26T09:03:44;5.25;;;2.00;;
37431;SDS011;23292;51.300;6.252;2022-10-26T09:06:22;6.72;;;2.13;;
37431;SDS011;23292;51.300;6.252;2022-10-26T09:11:49;7.55;;;1.73;;
37431;SDS011;23292;51.300;6.252;2022-10-26T09:14:37;5.82;;;1.58;;
37431;SDS011;23292;51.300;6.252;2022-10-26T09:25:20;8.50;;;1.67;;
37431;SDS011;23292;51.300;6.252;2022-10-26T09:30:21;8.85;;;2.00;;
37431;SDS011;23292;51.300;6.252;2022-10-26T09:32:49;8.15;;;1.75;;
37431;SDS011;23292;51.300;6.252;2022-10-26T09:35:22;5.72;;;1.98;;
37431;SDS011;23292;51.300;6.252;2022-10-26T09:38:01;5.47;;;2.10;;
37431;SDS011;23292;51.300;6.252;2022-10-26T09:43:09;7.28;;;1.90;;
37431;SDS011;23292;51.300;6.252;2022-10-26T09:45:43;6.05;;;2.03;;
37431;SDS011;23292;51.300;6.252;2022-10-26T09:48:15;7.68;;;2.35;;
37431;SDS011;23292;51.300;6.252;2022-10-26T09:50:58;6.63;;;2.53;;
37431;SDS011;23292;51.300;6.252;2022-10-26T09:53:30;8.35;;;2.67;;
37431;SDS011;23292;51.300;6.252;2022-10-26T09:56:04;9.75;;;2.20;;
37431;SDS011;23292;51.300;6.252;2022-10-26T09:58:39;10.43;;;2.33;;
37431;SDS011;23292;51.300;6.252;2022-10-26T10:01:21;8.90;;;2.40;;
37431;SDS011;23292;51.300;6.252;2022-10-26T10:06:43;10.07;;;2.70;;
37431;SDS011;23292;51.300;6.252;2022-10-26T10:09:12;16.17;;;2.72;;
37431;SDS011;23292;51.300;6.252;2022-10-26T10:11:48;9.23;;;2.20;;
37431;SDS011;23292;51.300;6.252;2022-10-26T10:14:21;10.20;;;2.47;;
37431;SDS011;23292;51.300;6.252;2022-10-26T10:16:49;9.18;;;2.42;;
37431;SDS011;23292;51.300;6.252;2022-10-26T10:19:25;9.57;;;3.42;;
37431;SDS011;23292;51.300;6.252;2022-10-26T10:21:58;11.95;;;2.80;;
37431;SDS011;23292;51.300;6.252;2022-10-26T10:26:57;8.65;;;2.30;;
37431;SDS011;23292;51.300;6.252;2022-10-26T10:29:26;6.93;;;2.05;;
37431;SDS011;23292;51.300;6.252;2022-10-26T10:31:58;12.73;;;2.70;;
37431;SDS011;23292;51.300;6.252;2022-10-26T10:34:28;11.40;;;2.63;;
37431;SDS011;23292;51.300;6.252;2022-10-26T10:36:56;8.80;;;2.80;;
37431;SDS011;23292;51.300;6.252;2022-10-26T10:39:35;8.18;;;2.75;;
37431;SDS011;23292;51.300;6.252;2022-10-26T10:42:05;8.10;;;2.08;;
37431;SDS011;23292;51.300;6.252;2022-10-26T10:44:43;8.93;;;2.63;;
37431;SDS011;23292;51.300;6.252;2022-10-26T10:47:20;11.98;;;3.55;;
37431;SDS011;23292;51.300;6.252;2022-10-26T10:49:52;6.15;;;2.10;;
37431;SDS011;23292;51.300;6.252;2022-10-26T10:52:31;8.93;;;2.38;;
37431;SDS011;23292;51.300;6.252;2022-10-26T10:55:13;9.00;;;2.53;;
37431;SDS011;23292;51.300;6.252;2022-10-26T11:00:24;11.13;;;2.10;;
37431;SDS011;23292;51.300;6.252;2022-10-26T11:13:55;6.05;;;1.80;;
37431;SDS011;23292;51.300;6.252;2022-10-26T11:16:37;9.05;;;2.15;;
37431;SDS011;23292;51.300;6.252;2022-10-26T11:19:21;7.57;;;2.00;;
37431;SDS011;23292;51.300;6.252;2022-10-26T11:22:09;7.05;;;1.80;;
37431;SDS011;23292;51.300;6.252;2022-10-26T11:27:16;7.60;;;1.52;;
37431;SDS011;23292;51.300;6.252;2022-10-26T11:32:40;5.38;;;1.38;;
37431;SDS011;23292;51.300;6.252;2022-10-26T11:37:44;5.93;;;1.80;;
37431;SDS011;23292;51.300;6.252;2022-10-26T11:40:21;5.18;;;1.38;;
37431;SDS011;23292;51.300;6.252;2022-10-26T11:42:56;5.10;;;1.70;;
37431;SDS011;23292;51.300;6.252;2022-10-26T11:45:44;6.95;;;1.50;;
37431;SDS011;23292;51.300;6.252;2022-10-26T11:48:27;8.02;;;1.75;;
37431;SDS011;23292;51.300;6.252;2022-10-26T11:51:00;5.03;;;1.23;;
37431;SDS011;23292;51.300;6.252;2022-10-26T11:53:29;5.55;;;1.40;;
37431;SDS011;23292;51.300;6.252;2022-10-26T11:56:10;3.75;;;1.20;;
37431;SDS011;23292;51.300;6.252;2022-10-26T11:58:47;5.95;;;1.65;;
37431;SDS011;23292;51.300;6.252;2022-10-26T12:01:14;7.03;;;1.25;;
37431;SDS011;23292;51.300;6.252;2022-10-26T12:03:45;4.07;;;1.10;;
37431;SDS011;23292;51.300;6.252;2022-10-26T12:06:14;4.50;;;1.25;;
37431;SDS011;23292;51.300;6.252;2022-10-26T12:08:46;4.63;;;1.50;;
37431;SDS011;23292;51.300;6.252;2022-10-26T12:11:24;4.80;;;1.33;;
37431;SDS011;23292;51.300;6.252;2022-10-26T12:14:14;3.20;;;1.20;;
37431;SDS011;23292;51.300;6.252;2022-10-26T12:19:54;7.25;;;1.30;;
37431;SDS011;23292;51.300;6.252;2022-10-26T12:22:31;4.85;;;1.50;;
37431;SDS011;23292;51.300;6.252;2022-10-26T12:25:04;6.25;;;1.38;;
37431;SDS011;23292;51.300;6.252;2022-10-26T12:33:47;5.35;;;1.33;;
37431;SDS011;23292;51.300;6.252;2022-10-26T12:35:54;6.28;;;1.58;;
37431;SDS011;23292;51.300;6.252;2022-10-26T12:41:07;6.28;;;1.65;;
37431;SDS011;23292;51.300;6.252;2022-10-26T12:43:42;7.22;;;1.30;;
37431;SDS011;23292;51.300;6.252;2022-10-26T12:48:49;5.88;;;1.25;;
37431;SDS011;23292;51.300;6.252;2022-10-26T12:53:54;5.93;;;1.05;;
37431;SDS011;23292;51.300;6.252;2022-10-26T12:56:27;4.80;;;1.02;;
37431;SDS011;23292;51.300;6.252;2022-10-26T13:01:38;6.47;;;1.92;;
37431;SDS011;23292;51.300;6.252;2022-10-26T13:10:00;6.55;;;1.30;;
37431;SDS011;23292;51.300;6.252;2022-10-26T13:15:20;4.82;;;1.48;;
37431;SDS011;23292;51.300;6.252;2022-10-26T13:20:23;4.03;;;1.25;;
37431;SDS011;23292;51.300;6.252;2022-10-26T13:22:50;6.68;;;1.73;;
37431;SDS011;23292;51.300;6.252;2022-10-26T13:25:22;6.78;;;1.80;;
37431;SDS011;23292;51.300;6.252;2022-10-26T13:28:52;6.10;;;1.58;;
37431;SDS011;23292;51.300;6.252;2022-10-26T13:30:56;6.32;;;1.75;;
37431;SDS011;23292;51.300;6.252;2022-10-26T13:33:28;7.15;;;1.40;;
37431;SDS011;23292;51.300;6.252;2022-10-26T13:36:01;7.22;;;1.25;;
37431;SDS011;23292;51.300;6.252;2022-10-26T13:38:39;3.40;;;1.20;;
37431;SDS011;23292;51.300;6.252;2022-10-26T13:41:10;4.03;;;1.55;;
37431;SDS011;23292;51.300;6.252;2022-10-26T13:43:44;9.40;;;1.40;;
37431;SDS011;23292;51.300;6.252;2022-10-26T13:46:18;3.50;;;1.15;;
37431;SDS011;23292;51.300;6.252;2022-10-26T13:48:50;5.50;;;1.30;;
37431;SDS011;23292;51.300;6.252;2022-10-26T13:51:19;4.40;;;1.23;;
37431;SDS011;23292;51.300;6.252;2022-10-26T13:54:06;6.67;;;0.97;;
37431;SDS011;23292;51.300;6.252;2022-10-26T13:57:09;3.08;;;1.10;;
37431;SDS011;23292;51.300;6.252;2022-10-26T13:59:43;6.57;;;1.20;;
37431;SDS011;23292;51.300;6.252;2022-10-26T14:02:15;5.97;;;1.52;;
37431;SDS011;23292;51.300;6.252;2022-10-26T14:04:52;4.05;;;1.30;;
37431;SDS011;23292;51.300;6.252;2022-10-26T14:07:27;9.95;;;1.45;;
37431;SDS011;23292;51.300;6.252;2022-10-26T14:10:05;6.43;;;1.75;;
37431;SDS011;23292;51.300;6.252;2022-10-26T14:12:32;10.82;;;1.45;;
37431;SDS011;23292;51.300;6.252;2022-10-26T14:15:04;8.32;;;2.17;;
37431;SDS011;23292;51.300;6.252;2022-10-26T14:17:33;5.90;;;1.35;;
37431;SDS011;23292;51.300;6.252;2022-10-26T14:20:01;10.00;;;1.70;;
37431;SDS011;23292;51.300;6.252;2022-10-26T14:22:29;4.93;;;1.35;;
37431;SDS011;23292;51.300;6.252;2022-10-26T14:24:57;6.15;;;1.52;;
37431;SDS011;23292;51.300;6.252;2022-10-26T14:27:32;6.72;;;1.58;;
37431;SDS011;23292;51.300;6.252;2022-10-26T14:30:19;3.83;;;1.20;;
37431;SDS011;23292;51.300;6.252;2022-10-26T14:32:50;7.75;;;0.93;;
37431;SDS011;23292;51.300;6.252;2022-10-26T14:35:20;4.47;;;1.13;;
37431;SDS011;23292;51.300;6.252;2022-10-26T14:40:39;3.80;;;1.08;;
37431;SDS011;23292;51.300;6.252;2022-10-26T14:43:06;6.68;;;1.50;;
37431;SDS011;23292;51.300;6.252;2022-10-26T14:45:45;3.45;;;1.00;;
37431;SDS011;23292;51.300;6.252;2022-10-26T14:48:27;4.13;;;1.15;;
37431;SDS011;23292;51.300;6.252;2022-10-26T14:51:17;5.53;;;1.10;;
37431;SDS011;23292;51.300;6.252;2022-10-26T14:53:51;4.53;;;1.15;;
37431;SDS011;23292;51.300;6.252;2022-10-26T14:58:57;4.53;;;1.10;;
37431;SDS011;23292;51.300;6.252;2022-10-26T15:01:26;6.50;;;1.30;;
37431;SDS011;23292;51.300;6.252;2022-10-26T15:04:03;5.10;;;1.13;;
37431;SDS011;23292;51.300;6.252;2022-10-26T15:06:37;5.80;;;1.00;;
37431;SDS011;23292;51.300;6.252;2022-10-26T15:11:58;3.13;;;0.82;;
37431;SDS011;23292;51.300;6.252;2022-10-26T15:14:27;5.20;;;0.98;;
37431;SDS011;23292;51.300;6.252;2022-10-26T15:16:55;7.22;;;1.17;;
37431;SDS011;23292;51.300;6.252;2022-10-26T15:19:23;3.60;;;0.80;;
37431;SDS011;23292;51.300;6.252;2022-10-26T15:21:52;5.65;;;1.08;;
37431;SDS011;23292;51.300;6.252;2022-10-26T15:26:46;9.65;;;2.53;;
37431;SDS011;23292;51.300;6.252;2022-10-26T15:32:00;8.48;;;2.65;;
37431;SDS011;23292;51.300;6.252;2022-10-26T15:34:27;7.53;;;2.20;;
37431;SDS011;23292;51.300;6.252;2022-10-26T15:36:54;9.30;;;2.17;;
37431;SDS011;23292;51.300;6.252;2022-10-26T15:39:21;9.63;;;2.70;;
37431;SDS011;23292;51.300;6.252;2022-10-26T15:41:50;11.95;;;3.28;;
37431;SDS011;23292;51.300;6.252;2022-10-26T15:44:19;7.45;;;2.85;;
37431;SDS011;23292;51.300;6.252;2022-10-26T15:46:47;6.28;;;2.20;;
37431;SDS011;23292;51.300;6.252;2022-10-26T15:49:16;7.72;;;2.35;;
37431;SDS011;23292;51.300;6.252;2022-10-26T15:51:45;6.30;;;2.50;;
37431;SDS011;23292;51.300;6.252;2022-10-26T15:54:13;5.10;;;2.47;;
37431;SDS011;23292;51.300;6.252;2022-10-26T15:56:40;14.73;;;3.72;;
37431;SDS011;23292;51.300;6.252;2022-10-26T15:59:16;7.07;;;2.08;;
37431;SDS011;23292;51.300;6.252;2022-10-26T16:01:43;6.40;;;1.77;;
37431;SDS011;23292;51.300;6.252;2022-10-26T16:04:10;6.78;;;2.30;;
37431;SDS011;23292;51.300;6.252;2022-10-26T16:06:44;3.30;;;1.25;;
37431;SDS011;23292;51.300;6.252;2022-10-26T16:09:12;5.38;;;1.65;;
37431;SDS011;23292;51.300;6.252;2022-10-26T16:11:41;6.55;;;1.70;;
37431;SDS011;23292;51.300;6.252;2022-10-26T16:14:09;5.47;;;1.58;;
37431;SDS011;23292;51.300;6.252;2022-10-26T16:16:37;6.10;;;1.83;;
37431;SDS011;23292;51.300;6.252;2022-10-26T16:19:05;6.35;;;1.90;;
37431;SDS011;23292;51.300;6.252;2022-10-26T16:21:51;12.25;;;1.98;;
37431;SDS011;23292;51.300;6.252;2022-10-26T16:24:18;5.90;;;1.70;;
37431;SDS011;23292;51.300;6.252;2022-10-26T16:26:45;4.45;;;1.50;;
37431;SDS011;23292;51.300;6.252;2022-10-26T16:29:12;7.70;;;1.98;;
37431;SDS011;23292;51.300;6.252;2022-10-26T16:31:38;5.22;;;1.60;;
37431;SDS011;23292;51.300;6.252;2022-10-26T16:34:05;5.18;;;1.48;;
37431;SDS011;23292;51.300;6.252;2022-10-26T16:36:32;5.10;;;1.70;;
37431;SDS011;23292;51.300;6.252;2022-10-26T16:38:59;3.47;;;1.35;;
37431;SDS011;23292;51.300;6.252;2022-10-26T16:41:27;11.32;;;2.10;;
37431;SDS011;23292;51.300;6.252;2022-10-26T16:43:54;5.40;;;1.90;;
37431;SDS011;23292;51.300;6.252;2022-10-26T16:46:21;3.80;;;1.48;;
37431;SDS011;23292;51.300;6.252;2022-10-26T16:48:49;6.95;;;1.67;;
37431;SDS011;23292;51.300;6.252;2022-10-26T16:51:17;9.65;;;2.10;;
37431;SDS011;23292;51.300;6.252;2022-10-26T16:53:46;5.30;;;1.85;;
37431;SDS011;23292;51.300;6.252;2022-10-26T16:56:15;5.60;;;1.75;;
37431;SDS011;23292;51.300;6.252;2022-10-26T16:58:44;6.60;;;2.30;;
37431;SDS011;23292;51.300;6.252;2022-10-26T17:01:11;10.65;;;2.28;;
37431;SDS011;23292;51.300;6.252;2022-10-26T17:03:43;5.38;;;2.15;;
37431;SDS011;23292;51.300;6.252;2022-10-26T17:06:11;4.07;;;1.60;;
37431;SDS011;23292;51.300;6.252;2022-10-26T17:08:38;5.30;;;1.40;;
37431;SDS011;23292;51.300;6.252;2022-10-26T17:11:06;4.20;;;1.30;;
37431;SDS011;23292;51.300;6.252;2022-10-26T17:13:35;4.55;;;1.75;;
37431;SDS011;23292;51.300;6.252;2022-10-26T17:16:10;4.57;;;1.90;;
37431;SDS011;23292;51.300;6.252;2022-10-26T17:18:42;7.18;;;1.95;;
37431;SDS011;23292;51.300;6.252;2022-10-26T17:21:10;7.07;;;2.08;;
37431;SDS011;23292;51.300;6.252;2022-10-26T17:23:38;7.65;;;1.90;;